createdAt,value
2023-05-01T00:02:38.458Z,98105.56
2023-05-01T00:05:40.597Z,98100.88
2023-05-01T00:08:42.656Z,98102.31
2023-05-01T00:11:44.724Z,98089.25
2023-05-01T00:14:46.806Z,98090.25
2023-05-01T00:17:49.137Z,98057.97
2023-05-01T00:20:51.228Z,98088.38
2023-05-01T00:23:53.296Z,98085.28
2023-05-01T00:26:55.348Z,98083.47
2023-05-01T00:29:57.761Z,98078.66
2023-05-01T00:33:01.281Z,98089.75
2023-05-01T00:36:03.625Z,98075.34
2023-05-01T00:39:08.152Z,98086.41
2023-05-01T00:42:10.362Z,98072.56
2023-05-01T00:45:12.471Z,98081.78
2023-05-01T00:48:15.384Z,98082.69
2023-05-01T00:51:17.356Z,98084.25
2023-05-01T00:54:20.466Z,98080.00
2023-05-01T00:57:22.737Z,98074.53
2023-05-01T01:00:25.056Z,98068.47
2023-05-01T01:03:27.834Z,98082.56
2023-05-01T01:06:46.809Z,98080.75
2023-05-01T01:09:51.495Z,98080.19
2023-05-01T01:13:10.867Z,98073.91
2023-05-01T01:16:21.864Z,98073.00
2023-05-01T01:20:01.633Z,98062.88
2023-05-01T01:23:11.085Z,98060.06
2023-05-01T01:26:34.793Z,98066.06
2023-05-01T01:30:08.936Z,98059.81
2023-05-01T01:33:41.992Z,98064.44
2023-05-01T01:36:56.322Z,98063.00
2023-05-01T01:40:09.996Z,98055.28
2023-05-01T01:43:16.854Z,98055.66
2023-05-01T01:46:20.744Z,98058.81
2023-05-01T01:49:26.651Z,98056.13
2023-05-01T01:52:30.244Z,98058.75
2023-05-01T01:55:35.257Z,98053.47
2023-05-01T01:58:40.148Z,98051.22
2023-05-01T02:01:44.870Z,98054.22
2023-05-01T02:04:49.050Z,98053.09
2023-05-01T02:07:52.918Z,98047.22
2023-05-01T02:11:01.857Z,98048.78
2023-05-01T02:14:06.253Z,98046.16
2023-05-01T02:17:10.339Z,98035.34
2023-05-01T02:20:13.806Z,98038.72
2023-05-01T02:23:17.030Z,98039.06
2023-05-01T02:26:23.790Z,98032.53
2023-05-01T02:29:26.428Z,98039.16
2023-05-01T02:32:28.749Z,98029.63
2023-05-01T02:35:31.473Z,98021.13
2023-05-01T02:38:33.529Z,97980.22
2023-05-01T02:41:37.078Z,98025.03
2023-05-01T02:44:44.070Z,98023.91
2023-05-01T02:47:50.765Z,98014.75
2023-05-01T02:50:54.335Z,98013.31
2023-05-01T02:53:57.245Z,98017.13
2023-05-01T02:56:59.785Z,98009.78
2023-05-01T03:00:01.812Z,98011.13
2023-05-01T03:03:04.039Z,98004.25
2023-05-01T03:06:06.255Z,98002.97
2023-05-01T03:09:08.292Z,98000.69
2023-05-01T03:12:11.823Z,97998.06
2023-05-01T03:15:13.872Z,97997.25
2023-05-01T03:18:16.278Z,98000.34
2023-05-01T03:21:18.384Z,97998.78
2023-05-01T03:24:20.392Z,97978.66
2023-05-01T03:27:22.310Z,97996.50
2023-05-01T03:30:24.269Z,98004.31
2023-05-01T03:33:28.063Z,97998.59
2023-05-01T03:36:30.222Z,97998.41
2023-05-01T03:39:32.470Z,97999.78
2023-05-01T03:43:00.300Z,98004.38
2023-05-01T03:46:02.449Z,97997.97
2023-05-01T03:49:04.989Z,97997.78
2023-05-01T03:52:12.746Z,98004.03
2023-05-01T03:55:14.934Z,98002.41
2023-05-01T03:58:17.951Z,97998.59
2023-05-01T04:01:20.632Z,98003.38
2023-05-01T04:04:23.351Z,98000.31
2023-05-01T04:07:31.110Z,97993.59
2023-05-01T04:10:33.244Z,97983.06
2023-05-01T04:13:39.300Z,97993.25
2023-05-01T04:16:41.575Z,97986.16
2023-05-01T04:19:43.723Z,97990.22
2023-05-01T04:22:45.852Z,97987.72
2023-05-01T04:25:47.907Z,97960.78
2023-05-01T04:28:52.706Z,97990.69
2023-05-01T04:31:58.403Z,97985.25
2023-05-01T04:35:00.572Z,97989.34
2023-05-01T04:38:03.393Z,97976.84
2023-05-01T04:41:06.378Z,97975.06
2023-05-01T04:44:08.534Z,97983.66
2023-05-01T04:47:10.636Z,97981.97
2023-05-01T04:50:12.697Z,97982.31
2023-05-01T04:53:15.554Z,97991.66
2023-05-01T04:56:18.268Z,97981.78
2023-05-01T04:59:21.892Z,97978.59
2023-05-01T05:02:24.229Z,97975.06
2023-05-01T05:05:26.557Z,97983.84
2023-05-01T05:08:28.962Z,97988.38
2023-05-01T05:11:36.576Z,97988.63
2023-05-01T05:14:42.906Z,97971.31
2023-05-01T05:17:45.919Z,97977.94
2023-05-01T05:20:48.688Z,97949.19
2023-05-01T05:23:51.154Z,97980.28
2023-05-01T05:26:53.157Z,97982.78
2023-05-01T05:29:55.866Z,97981.88
2023-05-01T05:32:58.223Z,97981.31
2023-05-01T05:36:00.590Z,97980.75
2023-05-01T05:39:08.595Z,97979.06
2023-05-01T05:42:10.852Z,97981.56
2023-05-01T05:45:12.860Z,97980.66
2023-05-01T05:48:15.226Z,97983.78
2023-05-01T05:51:17.381Z,97983.47
2023-05-01T05:54:19.518Z,97979.50
2023-05-01T05:57:23.372Z,97982.41
2023-05-01T06:00:26.246Z,97979.88
2023-05-01T06:03:29.245Z,97982.44
2023-05-01T06:06:35.870Z,97973.19
2023-05-01T06:09:38.137Z,97966.59
2023-05-01T06:12:40.565Z,97961.19
2023-05-01T06:15:48.129Z,97967.38
2023-05-01T06:18:51.180Z,97967.03
2023-05-01T06:21:53.129Z,97966.28
2023-05-01T06:24:55.781Z,97971.59
2023-05-01T06:28:00.254Z,97966.13
2023-05-01T06:31:02.347Z,97966.16
2023-05-01T06:34:11.546Z,97971.59
2023-05-01T06:37:27.217Z,97964.78
2023-05-01T06:40:31.834Z,97964.16
2023-05-01T06:43:33.872Z,97958.44
2023-05-01T06:46:36.027Z,97957.47
2023-05-01T06:49:38.113Z,97961.44
2023-05-01T06:52:40.768Z,97946.38
2023-05-01T06:55:42.852Z,97972.09
2023-05-01T06:58:44.732Z,97962.63
2023-05-01T07:01:46.907Z,97961.81
2023-05-01T07:04:48.908Z,97956.66
2023-05-01T07:08:00.837Z,97952.53
2023-05-01T07:11:03.732Z,97954.50
2023-05-01T07:14:05.756Z,97952.16
2023-05-01T07:17:09.409Z,97957.69
2023-05-01T07:20:12.731Z,97955.63
2023-05-01T07:23:14.740Z,97954.94
2023-05-01T07:26:16.985Z,97952.41
2023-05-01T07:29:18.983Z,97951.00
2023-05-01T07:32:21.262Z,97952.25
2023-05-01T07:35:24.312Z,97946.69
2023-05-01T07:38:27.195Z,97945.66
2023-05-01T07:41:29.261Z,97949.84
2023-05-01T07:44:31.284Z,97936.66
2023-05-01T07:47:33.777Z,97938.16
2023-05-01T07:50:36.026Z,97928.63
2023-05-01T07:53:38.382Z,97935.69
2023-05-01T07:56:40.477Z,97931.53
2023-05-01T07:59:42.477Z,97907.19
2023-05-01T08:02:44.760Z,97938.00
2023-05-01T08:05:46.790Z,97940.84
2023-05-01T08:08:48.770Z,97928.22
2023-05-01T08:11:50.850Z,97936.47
2023-05-01T08:14:53.420Z,97923.81
2023-05-01T08:17:55.563Z,97925.06
2023-05-01T08:20:57.692Z,97936.06
2023-05-01T08:23:59.712Z,97926.88
2023-05-01T08:27:02.741Z,97928.69
2023-05-01T08:30:05.257Z,97927.56
2023-05-01T08:33:07.466Z,97931.22
2023-05-01T08:36:10.572Z,97931.03
2023-05-01T08:39:12.700Z,97919.19
2023-05-01T08:42:14.929Z,97925.59
2023-05-01T08:45:19.175Z,97919.44
2023-05-01T08:48:22.905Z,97928.97
2023-05-01T08:51:26.800Z,97919.03
2023-05-01T08:54:31.420Z,97917.59
2023-05-01T08:57:34.252Z,97914.44
2023-05-01T09:00:38.333Z,97897.31
2023-05-01T09:03:40.964Z,97897.78
2023-05-01T09:06:45.265Z,97898.41
2023-05-01T09:09:47.341Z,97894.94
2023-05-01T09:12:56.350Z,97886.13
2023-05-01T09:15:58.435Z,97888.78
2023-05-01T09:19:00.746Z,97883.97
2023-05-01T09:22:03.001Z,97882.38
2023-05-01T09:25:05.396Z,97875.91
2023-05-01T09:28:07.819Z,97888.56
2023-05-01T09:31:29.938Z,97882.38
2023-05-01T09:34:32.045Z,97872.97
2023-05-01T09:37:35.202Z,97873.50
2023-05-01T09:40:37.236Z,97873.22
2023-05-01T09:43:39.363Z,97874.03
2023-05-01T09:46:44.086Z,97861.66
2023-05-01T09:49:50.457Z,97862.97
2023-05-01T09:52:52.863Z,97872.88
2023-05-01T09:56:01.916Z,97863.75
2023-05-01T09:59:18.055Z,97865.56
2023-05-01T10:02:29.841Z,97852.69
2023-05-01T10:05:44.591Z,97853.03
2023-05-01T10:08:48.407Z,97852.72
2023-05-01T10:11:55.855Z,97848.06
2023-05-01T10:14:58.433Z,97856.31
2023-05-01T10:18:00.745Z,97850.91
2023-05-01T10:21:04.867Z,97841.91
2023-05-01T10:24:08.520Z,97841.25
2023-05-01T10:27:12.031Z,97844.81
2023-05-01T10:30:16.726Z,97834.75
2023-05-01T10:33:19.166Z,97838.44
2023-05-01T10:36:43.200Z,97828.41
2023-05-01T10:39:45.248Z,97820.88
2023-05-01T10:43:16.301Z,97823.19
2023-05-01T10:46:21.233Z,97816.34
2023-05-01T10:49:23.546Z,97826.47
2023-05-01T10:52:25.519Z,97818.78
2023-05-01T10:55:38.643Z,97812.81
2023-05-01T10:58:40.611Z,97813.50
2023-05-01T11:01:45.806Z,97800.78
2023-05-01T11:04:51.756Z,97804.69
2023-05-01T11:08:34.395Z,97806.75
2023-05-01T11:11:36.425Z,97795.97
2023-05-01T11:14:53.976Z,97799.03
2023-05-01T11:17:57.398Z,97782.84
2023-05-01T11:20:59.788Z,97792.81
2023-05-01T11:24:02.524Z,97796.53
2023-05-01T11:27:05.141Z,97801.41
2023-05-01T11:30:08.351Z,97793.16
2023-05-01T11:33:11.233Z,97787.72
2023-05-01T11:36:14.318Z,97765.69
2023-05-01T11:39:17.585Z,97776.41
2023-05-01T11:42:22.964Z,97782.75
2023-05-01T11:45:25.474Z,97780.47
2023-05-01T11:48:28.426Z,97782.88
2023-05-01T11:51:32.095Z,97780.66
2023-05-01T11:54:47.740Z,97780.47
2023-05-01T11:57:51.876Z,97771.00
2023-05-01T12:00:53.881Z,97770.31
2023-05-01T12:03:56.136Z,97767.69
2023-05-01T12:06:58.319Z,97753.13
2023-05-01T12:10:01.270Z,97753.84
2023-05-01T12:13:07.890Z,97759.03
2023-05-01T12:16:10.324Z,97751.94
2023-05-01T12:19:16.205Z,97752.78
2023-05-01T12:22:18.780Z,97745.72
2023-05-01T12:25:20.983Z,97746.53
2023-05-01T12:28:23.011Z,97740.38
2023-05-01T12:31:26.330Z,97714.63
2023-05-01T12:34:34.382Z,97736.44
2023-05-01T12:37:36.512Z,97733.81
2023-05-01T12:40:40.189Z,97711.19
2023-05-01T12:43:44.252Z,97736.38
2023-05-01T12:46:56.449Z,97720.22
2023-05-01T12:50:03.395Z,97720.09
2023-05-01T12:53:06.536Z,97718.38
2023-05-01T12:56:08.659Z,97715.34
2023-05-01T12:59:22.562Z,97714.63
2023-05-01T13:02:30.641Z,97694.22
2023-05-01T13:05:32.743Z,97704.50
2023-05-01T13:08:37.755Z,97698.53
2023-05-01T13:11:39.880Z,97704.44
2023-05-01T13:14:43.680Z,97694.06
2023-05-01T13:17:46.110Z,97692.59
2023-05-01T13:20:48.399Z,97688.38
2023-05-01T13:23:56.103Z,97693.72
2023-05-01T13:27:02.883Z,97681.50
2023-05-01T13:30:07.937Z,97692.06
2023-05-01T13:33:11.276Z,97666.97
2023-05-01T13:36:25.085Z,97672.81
2023-05-01T13:39:28.580Z,97648.56
2023-05-01T13:42:30.833Z,97654.59
2023-05-01T13:45:32.949Z,97652.53
2023-05-01T13:48:35.020Z,97621.69
2023-05-01T13:51:43.000Z,97652.75
2023-05-01T13:54:47.037Z,97647.09
2023-05-01T13:57:49.779Z,97647.34
2023-05-01T14:00:51.921Z,97645.97
2023-05-01T14:03:57.526Z,97638.50
2023-05-01T14:07:01.460Z,97639.44
2023-05-01T14:10:03.898Z,97631.69
2023-05-01T14:13:06.580Z,97622.94
2023-05-01T14:16:11.057Z,97614.84
2023-05-01T14:19:16.802Z,97622.31
2023-05-01T14:22:19.033Z,97631.81
2023-05-01T14:25:34.747Z,97615.81
2023-05-01T14:28:48.198Z,97610.59
2023-05-01T14:31:50.189Z,97606.88
2023-05-01T14:34:52.804Z,97595.94
2023-05-01T14:37:55.515Z,97616.63
2023-05-01T14:40:57.882Z,97605.78
2023-05-01T14:44:01.271Z,97609.19
2023-05-01T14:47:03.547Z,97606.94
2023-05-01T14:50:07.076Z,97599.66
2023-05-01T14:53:09.188Z,97602.72
2023-05-01T14:56:12.803Z,97593.16
2023-05-01T14:59:14.915Z,97595.81
2023-05-01T15:02:17.298Z,97591.88
2023-05-01T15:05:19.354Z,97598.22
2023-05-01T15:08:21.958Z,97585.47
2023-05-01T15:11:23.981Z,97599.31
2023-05-01T15:14:27.435Z,97596.22
2023-05-01T15:17:31.096Z,97589.97
2023-05-01T15:20:34.313Z,97597.97
2023-05-01T15:23:37.297Z,97590.19
2023-05-01T15:26:39.284Z,97604.25
2023-05-01T15:29:41.829Z,97603.84
2023-05-01T15:32:44.239Z,97603.72
2023-05-01T15:35:47.402Z,97591.19
2023-05-01T15:38:49.414Z,97586.34
2023-05-01T15:41:52.966Z,97592.84
2023-05-01T15:44:54.978Z,97594.47
2023-05-01T15:47:57.028Z,97574.19
2023-05-01T15:50:59.088Z,97592.75
2023-05-01T15:54:02.225Z,97592.53
2023-05-01T15:57:04.223Z,97586.84
2023-05-01T16:00:08.609Z,97582.03
2023-05-01T16:03:11.874Z,97588.50
2023-05-01T16:06:17.258Z,97578.09
2023-05-01T16:09:20.401Z,97582.72
2023-05-01T16:12:22.816Z,97588.41
2023-05-01T16:15:24.872Z,97576.91
2023-05-01T16:18:26.817Z,97591.56
2023-05-01T16:21:29.524Z,97583.78
2023-05-01T16:24:35.235Z,97589.44
2023-05-01T16:27:45.947Z,97587.91
2023-05-01T16:30:49.034Z,97575.63
2023-05-01T16:33:53.553Z,97582.16
2023-05-01T16:36:56.685Z,97583.50
2023-05-01T16:40:00.304Z,97588.44
2023-05-01T16:43:03.148Z,97588.25
2023-05-01T16:46:05.257Z,97573.53
2023-05-01T16:49:07.594Z,97549.50
2023-05-01T16:52:13.658Z,97578.44
2023-05-01T16:55:16.096Z,97576.59
2023-05-01T16:58:18.171Z,97583.03
2023-05-01T17:01:20.229Z,97568.34
2023-05-01T17:04:22.742Z,97576.72
2023-05-01T17:07:24.900Z,97576.78
2023-05-01T17:10:26.925Z,97554.53
2023-05-01T17:13:29.052Z,97582.72
2023-05-01T17:16:32.573Z,97570.66
2023-05-01T17:19:34.643Z,97580.91
2023-05-01T17:22:37.067Z,97579.56
2023-05-01T17:25:39.136Z,97579.25
2023-05-01T17:28:41.463Z,97579.00
2023-05-01T17:31:44.032Z,97573.13
2023-05-01T17:34:46.556Z,97577.72
2023-05-01T17:37:48.737Z,97583.97
2023-05-01T17:40:50.995Z,97592.00
2023-05-01T17:43:55.339Z,97587.19
2023-05-01T17:46:57.258Z,97589.91
2023-05-01T17:50:01.140Z,97587.78
2023-05-01T17:53:03.683Z,97561.81
2023-05-01T17:56:05.642Z,97585.94
2023-05-01T17:59:07.820Z,97582.16
2023-05-01T18:02:10.564Z,97586.19
2023-05-01T18:05:14.673Z,97586.72
2023-05-01T18:08:17.549Z,97592.06
2023-05-01T18:11:19.801Z,97594.47
2023-05-01T18:14:22.261Z,97584.00
2023-05-01T18:17:25.403Z,97586.69
2023-05-01T18:20:27.851Z,97560.13
2023-05-01T18:23:30.294Z,97587.72
2023-05-01T18:26:33.178Z,97592.00
2023-05-01T18:29:35.559Z,97598.38
2023-05-01T18:32:47.755Z,97594.09
2023-05-01T18:35:51.656Z,97604.50
2023-05-01T18:38:54.431Z,97604.75
2023-05-01T18:41:58.031Z,97605.53
2023-05-01T18:45:00.888Z,97614.34
2023-05-01T18:48:05.958Z,97613.50
2023-05-01T18:51:10.575Z,97592.78
2023-05-01T18:54:13.213Z,97621.16
2023-05-01T18:57:15.680Z,97623.50
2023-05-01T19:00:20.505Z,97621.09
2023-05-01T19:03:23.368Z,97636.03
2023-05-01T19:06:28.293Z,97636.25
2023-05-01T19:09:31.291Z,97628.97
2023-05-01T19:12:33.615Z,97629.44
2023-05-01T19:15:36.593Z,97627.25
2023-05-01T19:18:41.105Z,97635.25
2023-05-01T19:21:44.189Z,97634.09
2023-05-01T19:24:47.134Z,97629.75
2023-05-01T19:27:51.689Z,97631.88
2023-05-01T19:30:56.809Z,97634.81
2023-05-01T19:33:59.844Z,97645.19
2023-05-01T19:37:03.125Z,97650.00
2023-05-01T19:40:08.734Z,97638.69
2023-05-01T19:43:14.420Z,97657.91
2023-05-01T19:46:17.402Z,97652.75
2023-05-01T19:49:22.077Z,97660.97
2023-05-01T19:52:25.089Z,97665.16
2023-05-01T19:55:28.625Z,97668.84
2023-05-01T19:58:31.254Z,97660.47
2023-05-01T20:01:33.755Z,97662.19
2023-05-01T20:04:36.385Z,97665.00
2023-05-01T20:07:39.160Z,97663.59
2023-05-01T20:10:42.118Z,97678.75
2023-05-01T20:13:45.642Z,97676.25
2023-05-01T20:16:49.357Z,97670.56
2023-05-01T20:19:52.689Z,97671.78
2023-05-01T20:23:16.572Z,97671.97
2023-05-01T20:26:19.699Z,97648.72
2023-05-01T20:29:22.071Z,97670.44
2023-05-01T20:32:24.116Z,97671.44
2023-05-01T20:35:26.222Z,97675.38
2023-05-01T20:38:28.450Z,97676.28
2023-05-01T20:41:31.489Z,97670.78
2023-05-01T20:44:33.852Z,97683.78
2023-05-01T20:47:36.043Z,97683.50
2023-05-01T20:50:38.304Z,97680.03
2023-05-01T20:53:40.419Z,97681.06
2023-05-01T20:56:42.424Z,97663.78
2023-05-01T20:59:48.382Z,97672.91
2023-05-01T21:02:52.049Z,97681.06
2023-05-01T21:06:01.831Z,97681.22
2023-05-01T21:09:05.429Z,97677.81
2023-05-01T21:12:07.547Z,97692.81
2023-05-01T21:15:11.308Z,97694.59
2023-05-01T21:18:15.148Z,97665.88
2023-05-01T21:21:17.349Z,97688.97
2023-05-01T21:24:22.904Z,97696.31
2023-05-01T21:27:26.244Z,97693.53
2023-05-01T21:30:34.690Z,97691.25
2023-05-01T21:33:37.754Z,97692.44
2023-05-01T21:36:47.224Z,97694.78
2023-05-01T21:39:50.107Z,97694.69
2023-05-01T21:42:54.553Z,97697.81
2023-05-01T21:45:56.805Z,97695.84
2023-05-01T21:48:58.794Z,97684.75
2023-05-01T21:52:01.932Z,97697.00
2023-05-01T21:55:08.682Z,97695.88
2023-05-01T21:58:12.496Z,97686.75
2023-05-01T22:01:16.554Z,97671.44
2023-05-01T22:04:19.095Z,97704.25
2023-05-01T22:07:21.545Z,97702.63
2023-05-01T22:10:23.606Z,97707.63
2023-05-01T22:13:32.224Z,97707.50
2023-05-01T22:16:34.803Z,97702.78
2023-05-01T22:19:38.056Z,97701.38
2023-05-01T22:22:41.736Z,97707.19
2023-05-01T22:25:43.861Z,97709.59
2023-05-01T22:28:46.003Z,97710.41
2023-05-01T22:31:48.098Z,97713.50
2023-05-01T22:34:50.209Z,97717.09
2023-05-01T22:37:52.239Z,97696.44
2023-05-01T22:40:54.309Z,97715.94
2023-05-01T22:43:56.890Z,97726.81
2023-05-01T22:47:02.191Z,97716.63
2023-05-01T22:50:05.116Z,97719.16
2023-05-01T22:53:07.466Z,97718.38
2023-05-01T22:56:09.554Z,97719.97
2023-05-01T22:59:11.750Z,97725.28
2023-05-01T23:02:16.532Z,97725.53
2023-05-01T23:05:18.674Z,97715.34
2023-05-01T23:08:20.771Z,97719.53
2023-05-01T23:11:22.962Z,97720.78
2023-05-01T23:14:25.979Z,97686.91
2023-05-01T23:17:35.061Z,97722.63
2023-05-01T23:20:40.596Z,97715.00
2023-05-01T23:23:45.768Z,97721.22
2023-05-01T23:26:47.997Z,97722.72
2023-05-01T23:29:58.367Z,97723.63
2023-05-01T23:33:01.035Z,97723.75
2023-05-01T23:36:03.211Z,97727.44
2023-05-01T23:39:05.237Z,97716.59
2023-05-01T23:42:07.529Z,97728.34
2023-05-01T23:45:09.870Z,97723.50
2023-05-01T23:48:12.332Z,97720.47
2023-05-01T23:51:14.539Z,97715.63
2023-05-01T23:54:16.857Z,97715.03
2023-05-01T23:57:18.887Z,97711.34
